Time;durP1;ratioP1;P1;durP2;ratioP2;P2;SDS_P1;SDS_P2;PMS_P1;PMS_P2;Temp;Humidity;BMP_temperature;BMP_pressure;BME280_temperature;BME280_humidity;BME280_pressure;Samples;Min_cycle;Max_cycle;Signal;HPM_P1;HPM_P2
2022/09/09 00:02:00;;;;;;;7.60;2.40;;;;;;;;;;755126;184;919166;-55
2022/09/09 00:04:29;;;;;;;10.30;3.97;;;;;;;;;;756580;180;818653;-55
2022/09/09 00:07:02;;;;;;;4.17;2.83;;;;;;;;;;750114;180;914950;-55
2022/09/09 00:09:26;;;;;;;5.57;3.43;;;;;;;;;;757426;182;918160;-56
2022/09/09 00:11:53;;;;;;;5.30;3.27;;;;;;;;;;753294;185;920966;-58
2022/09/09 00:14:24;;;;;;;7.90;3.43;;;;;;;;;;755868;184;918382;-57
2022/09/09 00:16:50;;;;;;;9.60;4.27;;;;;;;;;;756575;184;816369;-58
2022/09/09 00:19:22;;;;;;;9.13;5.10;;;;;;;;;;746982;187;919299;-58
2022/09/09 00:21:52;;;;;;;9.15;5.40;;;;;;;;;;752273;185;919442;-56
2022/09/09 00:24:18;;;;;;;6.20;4.80;;;;;;;;;;752247;185;816836;-57
2022/09/09 00:26:53;;;;;;;9.00;5.30;;;;;;;;;;758929;183;916173;-58
2022/09/09 00:29:19;;;;;;;6.67;5.00;;;;;;;;;;754504;185;911997;-57
2022/09/09 00:31:46;;;;;;;7.73;5.23;;;;;;;;;;753770;182;918845;-58
2022/09/09 00:34:12;;;;;;;10.88;7.00;;;;;;;;;;759364;184;918817;-56
2022/09/09 00:36:38;;;;;;;5.70;4.93;;;;;;;;;;750364;184;919496;-58
2022/09/09 00:39:04;;;;;;;7.20;6.07;;;;;;;;;;756856;184;917008;-57
2022/09/09 00:41:34;;;;;;;5.80;5.03;;;;;;;;;;761147;184;918938;-59
2022/09/09 00:44:02;;;;;;;9.33;5.70;;;;;;;;;;757610;184;918928;-58
2022/09/09 00:46:32;;;;;;;7.57;4.93;;;;;;;;;;749759;184;919983;-58
2022/09/09 00:49:04;;;;;;;9.43;6.50;;;;;;;;;;749857;184;924755;-58
2022/09/09 00:51:31;;;;;;;9.10;6.05;;;;;;;;;;752569;185;916218;-56
2022/09/09 00:53:58;;;;;;;12.33;7.33;;;;;;;;;;756437;183;937885;-57
2022/09/09 00:56:24;;;;;;;8.63;6.05;;;;;;;;;;756131;184;918500;-57
2022/09/09 00:58:51;;;;;;;16.73;7.90;;;;;;;;;;755403;184;919962;-57
2022/09/09 01:01:17;;;;;;;7.93;6.50;;;;;;;;;;756692;184;919911;-57
2022/09/09 01:03:47;;;;;;;10.57;6.97;;;;;;;;;;753981;184;920217;-57
2022/09/09 01:06:16;;;;;;;12.77;7.70;;;;;;;;;;747358;186;919513;-57
2022/09/09 01:08:50;;;;;;;8.40;6.40;;;;;;;;;;753527;184;918653;-58
2022/09/09 01:11:16;;;;;;;9.17;7.73;;;;;;;;;;755322;185;919814;-57
2022/09/09 01:13:42;;;;;;;10.43;8.70;;;;;;;;;;758823;184;816694;-58
2022/09/09 01:16:07;;;;;;;14.90;9.80;;;;;;;;;;755414;181;859743;-56
2022/09/09 01:18:34;;;;;;;11.33;8.47;;;;;;;;;;752650;184;919385;-58
2022/09/09 01:21:04;;;;;;;20.53;10.53;;;;;;;;;;763386;184;917023;-56
2022/09/09 01:23:31;;;;;;;11.20;9.50;;;;;;;;;;757570;183;916488;-58
2022/09/09 01:26:02;;;;;;;16.03;10.90;;;;;;;;;;755378;184;918250;-58
2022/09/09 01:28:28;;;;;;;54.73;13.97;;;;;;;;;;754879;185;940155;-57
2022/09/09 01:30:54;;;;;;;16.23;9.43;;;;;;;;;;752731;185;919316;-57
2022/09/09 01:33:19;;;;;;;29.90;10.53;;;;;;;;;;757167;184;919788;-57
2022/09/09 01:35:46;;;;;;;13.20;11.20;;;;;;;;;;751767;185;938415;-56
2022/09/09 01:38:11;;;;;;;17.20;11.50;;;;;;;;;;762273;184;919393;-56
2022/09/09 01:40:37;;;;;;;16.87;12.10;;;;;;;;;;757928;184;919846;-58
2022/09/09 01:43:03;;;;;;;17.40;13.30;;;;;;;;;;748951;185;918287;-57
2022/09/09 01:45:29;;;;;;;15.40;12.77;;;;;;;;;;754150;185;918702;-58
2022/09/09 01:47:55;;;;;;;16.97;13.37;;;;;;;;;;739057;184;919308;-56
2022/09/09 01:50:20;;;;;;;17.20;13.37;;;;;;;;;;747462;182;918328;-59
2022/09/09 01:52:46;;;;;;;28.90;14.10;;;;;;;;;;753861;184;919313;-58
2022/09/09 01:55:12;;;;;;;18.43;13.13;;;;;;;;;;757197;185;822312;-57
2022/09/09 01:57:41;;;;;;;15.43;12.23;;;;;;;;;;753645;185;913853;-57
2022/09/09 02:00:09;;;;;;;16.10;11.37;;;;;;;;;;758524;182;918330;-59
2022/09/09 02:02:35;;;;;;;16.33;11.00;;;;;;;;;;755165;183;921256;-58
2022/09/09 02:05:06;;;;;;;18.20;12.70;;;;;;;;;;751476;184;919357;-58
2022/09/09 02:07:36;;;;;;;17.23;12.05;;;;;;;;;;754523;184;919714;-58
2022/09/09 02:10:01;;;;;;;16.73;12.10;;;;;;;;;;748739;184;921074;-57
2022/09/09 02:12:27;;;;;;;17.13;12.20;;;;;;;;;;758836;184;918665;-57
2022/09/09 02:14:53;;;;;;;14.30;10.80;;;;;;;;;;756025;184;919406;-57
2022/09/09 02:17:19;;;;;;;15.57;11.27;;;;;;;;;;757812;184;920552;-56
2022/09/09 02:19:45;;;;;;;13.20;11.40;;;;;;;;;;757491;185;920037;-56
2022/09/09 02:22:11;;;;;;;102.73;15.30;;;;;;;;;;754947;183;919602;-56
2022/09/09 02:24:36;;;;;;;17.40;11.33;;;;;;;;;;746612;185;942425;-56
2022/09/09 02:27:03;;;;;;;21.63;11.67;;;;;;;;;;749095;185;918831;-58
2022/09/09 02:29:28;;;;;;;12.23;9.00;;;;;;;;;;757889;185;919702;-58
2022/09/09 02:31:54;;;;;;;13.53;10.13;;;;;;;;;;755780;184;919781;-56
2022/09/09 02:34:20;;;;;;;10.37;8.30;;;;;;;;;;752144;184;922501;-58
2022/09/09 02:36:46;;;;;;;15.97;10.17;;;;;;;;;;752208;187;919210;-58
2022/09/09 02:39:12;;;;;;;30.90;10.30;;;;;;;;;;756927;184;920761;-57
2022/09/09 02:44:10;;;;;;;23.10;8.70;;;;;;;;;;752502;182;917995;-58
2022/09/09 02:46:37;;;;;;;27.07;8.83;;;;;;;;;;757502;185;917310;-55
2022/09/09 02:49:04;;;;;;;13.95;8.70;;;;;;;;;;752739;184;917030;-58
2022/09/09 02:51:30;;;;;;;13.47;9.33;;;;;;;;;;755500;185;919139;-58
2022/09/09 02:54:00;;;;;;;18.00;11.20;;;;;;;;;;754352;185;918555;-56
2022/09/09 02:56:26;;;;;;;29.07;18.00;;;;;;;;;;738980;185;915797;-58
2022/09/09 02:58:51;;;;;;;26.90;17.47;;;;;;;;;;749867;186;891035;-57
2022/09/09 03:01:17;;;;;;;30.87;17.37;;;;;;;;;;751266;185;919230;-57
2022/09/09 03:03:46;;;;;;;26.20;18.07;;;;;;;;;;752526;187;922059;-57
2022/09/09 03:06:11;;;;;;;32.00;17.77;;;;;;;;;;755068;182;921365;-56
2022/09/09 03:08:36;;;;;;;28.10;17.07;;;;;;;;;;748118;184;920231;-58
2022/09/09 03:11:02;;;;;;;40.60;21.20;;;;;;;;;;757797;183;915041;-57
2022/09/09 03:13:27;;;;;;;31.10;19.50;;;;;;;;;;755528;183;917264;-56
2022/09/09 03:15:53;;;;;;;33.57;19.77;;;;;;;;;;752640;185;918888;-56
2022/09/09 03:18:19;;;;;;;36.97;20.00;;;;;;;;;;762590;181;916494;-56
2022/09/09 03:20:46;;;;;;;53.67;20.37;;;;;;;;;;755336;184;919112;-56
2022/09/09 03:23:13;;;;;;;47.23;22.27;;;;;;;;;;752786;182;816724;-56
2022/09/09 03:25:37;;;;;;;66.23;21.30;;;;;;;;;;754312;184;917430;-56
2022/09/09 03:28:03;;;;;;;60.13;22.13;;;;;;;;;;756546;184;916466;-57
2022/09/09 03:30:28;;;;;;;74.30;23.43;;;;;;;;;;747706;185;919405;-56
2022/09/09 03:32:55;;;;;;;121.62;25.10;;;;;;;;;;749397;184;918970;-56
2022/09/09 03:35:20;;;;;;;61.60;22.13;;;;;;;;;;757224;184;805519;-58
2022/09/09 03:37:46;;;;;;;49.50;21.20;;;;;;;;;;752321;184;919327;-58
2022/09/09 03:40:12;;;;;;;44.07;21.67;;;;;;;;;;750738;183;1172326;-57
2022/09/09 03:42:38;;;;;;;37.03;20.60;;;;;;;;;;760362;184;921467;-56
2022/09/09 03:45:04;;;;;;;40.97;21.47;;;;;;;;;;752331;184;917492;-58
2022/09/09 03:47:30;;;;;;;51.20;21.53;;;;;;;;;;750538;185;917300;-59
2022/09/09 03:49:56;;;;;;;48.83;20.33;;;;;;;;;;750545;185;922665;-57
2022/09/09 03:52:24;;;;;;;64.20;20.83;;;;;;;;;;761287;181;918301;-58
2022/09/09 03:54:48;;;;;;;37.00;18.87;;;;;;;;;;754514;184;915242;-57
2022/09/09 03:57:16;;;;;;;49.23;20.60;;;;;;;;;;750416;185;918676;-58
2022/09/09 03:59:40;;;;;;;57.15;20.23;;;;;;;;;;757521;184;919500;-58
2022/09/09 04:02:06;;;;;;;95.63;20.10;;;;;;;;;;754233;184;920481;-58
2022/09/09 04:04:32;;;;;;;95.33;21.27;;;;;;;;;;755112;184;919497;-56
2022/09/09 04:06:57;;;;;;;79.17;18.73;;;;;;;;;;752205;184;875627;-58
2022/09/09 04:09:23;;;;;;;65.80;18.80;;;;;;;;;;755628;184;919417;-58
2022/09/09 04:11:49;;;;;;;61.27;16.20;;;;;;;;;;757110;184;917770;-56
2022/09/09 04:14:15;;;;;;;103.60;20.30;;;;;;;;;;758801;184;839054;-58
2022/09/09 04:16:42;;;;;;;112.67;20.70;;;;;;;;;;757269;184;919225;-58
2022/09/09 04:19:07;;;;;;;80.70;17.43;;;;;;;;;;749905;185;920602;-58
2022/09/09 04:21:32;;;;;;;54.33;15.40;;;;;;;;;;748174;184;919213;-56
2022/09/09 04:23:58;;;;;;;105.63;18.27;;;;;;;;;;757902;181;913317;-57
2022/09/09 04:26:24;;;;;;;106.10;17.97;;;;;;;;;;738107;187;916468;-58
2022/09/09 04:28:50;;;;;;;77.00;16.55;;;;;;;;;;740549;187;919222;-59
2022/09/09 04:31:17;;;;;;;103.53;16.10;;;;;;;;;;756790;183;918874;-58
2022/09/09 04:33:42;;;;;;;120.53;19.60;;;;;;;;;;758444;184;919419;-58
2022/09/09 04:36:08;;;;;;;95.87;16.93;;;;;;;;;;753305;184;926269;-57
2022/09/09 04:38:33;;;;;;;99.27;19.17;;;;;;;;;;758957;184;918939;-58
2022/09/09 04:40:59;;;;;;;97.57;17.80;;;;;;;;;;748808;185;920938;-56
2022/09/09 04:43:27;;;;;;;82.30;16.80;;;;;;;;;;758570;184;818696;-58
2022/09/09 04:45:53;;;;;;;83.77;16.70;;;;;;;;;;746598;185;921009;-59
2022/09/09 04:48:19;;;;;;;89.30;16.40;;;;;;;;;;757259;182;918563;-58
2022/09/09 04:50:45;;;;;;;54.42;15.20;;;;;;;;;;753820;184;819850;-57
2022/09/09 04:53:10;;;;;;;84.93;19.50;;;;;;;;;;752126;185;918581;-56
2022/09/09 04:55:36;;;;;;;86.97;17.40;;;;;;;;;;758183;185;817320;-58
2022/09/09 04:58:05;;;;;;;107.40;17.90;;;;;;;;;;754836;185;848993;-56
2022/09/09 05:00:31;;;;;;;115.60;16.93;;;;;;;;;;753247;185;624978;-58
2022/09/09 05:02:57;;;;;;;116.17;14.57;;;;;;;;;;757683;184;809583;-58
2022/09/09 05:05:23;;;;;;;101.70;15.40;;;;;;;;;;751553;185;922642;-56
2022/09/09 05:07:49;;;;;;;114.23;15.93;;;;;;;;;;749345;185;919125;-57
2022/09/09 05:10:16;;;;;;;71.60;14.70;;;;;;;;;;756321;184;816003;-56
2022/09/09 05:12:40;;;;;;;110.93;16.57;;;;;;;;;;757461;184;917297;-56
2022/09/09 05:15:06;;;;;;;110.90;14.77;;;;;;;;;;751656;184;919324;-57
2022/09/09 05:17:33;;;;;;;114.83;15.00;;;;;;;;;;752603;184;926737;-59
2022/09/09 05:19:58;;;;;;;96.40;16.60;;;;;;;;;;759537;182;919035;-57
2022/09/09 05:22:24;;;;;;;104.17;14.87;;;;;;;;;;747968;184;916699;-56
2022/09/09 05:24:51;;;;;;;86.63;15.23;;;;;;;;;;751834;185;919098;-59
2022/09/09 05:27:19;;;;;;;110.15;15.30;;;;;;;;;;757037;184;818308;-58
2022/09/09 05:29:44;;;;;;;72.57;14.97;;;;;;;;;;763455;181;921693;-56
2022/09/09 05:32:09;;;;;;;98.43;15.60;;;;;;;;;;748752;185;920895;-57
2022/09/09 05:34:35;;;;;;;89.97;15.70;;;;;;;;;;756805;181;821303;-58
2022/09/09 05:37:00;;;;;;;58.03;13.70;;;;;;;;;;756609;182;917924;-56
2022/09/09 05:39:26;;;;;;;60.27;14.43;;;;;;;;;;754616;182;919618;-59
2022/09/09 05:41:52;;;;;;;81.87;15.20;;;;;;;;;;754557;183;919182;-58
2022/09/09 05:44:19;;;;;;;87.77;15.60;;;;;;;;;;759870;184;817666;-59
2022/09/09 05:46:44;;;;;;;72.70;17.00;;;;;;;;;;749960;184;919459;-57
2022/09/09 05:49:10;;;;;;;54.17;15.03;;;;;;;;;;755882;184;918737;-59
2022/09/09 05:51:35;;;;;;;29.37;14.37;;;;;;;;;;759312;184;811361;-56
2022/09/09 05:54:01;;;;;;;91.33;18.40;;;;;;;;;;752740;184;917531;-58
2022/09/09 05:56:27;;;;;;;67.27;17.07;;;;;;;;;;748859;185;920047;-58
2022/09/09 05:58:54;;;;;;;43.30;15.27;;;;;;;;;;753148;184;917679;-58
2022/09/09 06:01:20;;;;;;;69.33;16.50;;;;;;;;;;758988;184;885969;-58
2022/09/09 06:03:46;;;;;;;62.30;15.90;;;;;;;;;;753903;184;921652;-57
2022/09/09 06:06:12;;;;;;;85.97;20.90;;;;;;;;;;753620;180;913511;-57
2022/09/09 06:08:38;;;;;;;62.60;19.60;;;;;;;;;;753890;185;919868;-59
2022/09/09 06:11:03;;;;;;;56.90;15.70;;;;;;;;;;756159;184;917849;-56
2022/09/09 06:13:29;;;;;;;62.67;17.50;;;;;;;;;;755732;184;918648;-58
2022/09/09 06:15:55;;;;;;;39.80;16.77;;;;;;;;;;753055;182;919707;-56
2022/09/09 06:18:21;;;;;;;52.33;16.73;;;;;;;;;;748869;185;922031;-58
2022/09/09 06:20:53;;;;;;;88.83;17.67;;;;;;;;;;745935;185;919050;-57
2022/09/09 06:23:20;;;;;;;68.63;17.00;;;;;;;;;;748695;185;816328;-56
2022/09/09 06:25:45;;;;;;;55.83;17.30;;;;;;;;;;759807;184;815182;-58
2022/09/09 06:28:10;;;;;;;92.20;18.47;;;;;;;;;;755772;184;919338;-58
2022/09/09 06:30:36;;;;;;;97.43;20.80;;;;;;;;;;752124;184;920802;-57
2022/09/09 06:33:03;;;;;;;97.83;20.67;;;;;;;;;;757252;185;891500;-57
2022/09/09 06:35:28;;;;;;;92.78;22.30;;;;;;;;;;750312;185;817150;-56
2022/09/09 06:37:54;;;;;;;77.13;22.80;;;;;;;;;;759594;184;918488;-58
2022/09/09 06:40:20;;;;;;;85.17;22.23;;;;;;;;;;752281;181;916191;-58
2022/09/09 06:42:45;;;;;;;49.93;21.37;;;;;;;;;;756631;185;910005;-58
2022/09/09 06:45:11;;;;;;;79.10;24.60;;;;;;;;;;754049;182;916536;-57
2022/09/09 06:47:37;;;;;;;52.30;22.70;;;;;;;;;;757028;184;916532;-57
2022/09/09 06:50:03;;;;;;;51.73;22.87;;;;;;;;;;749564;181;883410;-56
2022/09/09 06:52:29;;;;;;;59.23;24.17;;;;;;;;;;753819;184;916657;-57
2022/09/09 06:54:55;;;;;;;62.47;22.60;;;;;;;;;;752954;183;919568;-58
2022/09/09 06:57:21;;;;;;;60.37;23.90;;;;;;;;;;759189;184;928246;-57
2022/09/09 06:59:46;;;;;;;65.63;27.50;;;;;;;;;;751543;181;919969;-57
2022/09/09 07:02:13;;;;;;;60.80;27.80;;;;;;;;;;752185;184;919335;-57
2022/09/09 07:04:39;;;;;;;70.23;27.77;;;;;;;;;;752319;185;918693;-57
2022/09/09 07:07:04;;;;;;;63.80;28.00;;;;;;;;;;763236;181;815869;-57
2022/09/09 07:09:31;;;;;;;76.47;30.70;;;;;;;;;;753724;184;920453;-58
2022/09/09 07:11:59;;;;;;;67.03;30.70;;;;;;;;;;748118;185;939478;-57
2022/09/09 07:14:22;;;;;;;85.90;33.23;;;;;;;;;;753387;185;918955;-57
2022/09/09 07:16:48;;;;;;;70.20;31.33;;;;;;;;;;754335;184;918546;-57
2022/09/09 07:19:14;;;;;;;81.50;31.53;;;;;;;;;;754457;184;920400;-57
2022/09/09 07:21:40;;;;;;;67.53;30.73;;;;;;;;;;759391;184;915713;-58
2022/09/09 07:24:07;;;;;;;62.07;26.93;;;;;;;;;;749393;184;915186;-58
2022/09/09 07:26:32;;;;;;;67.43;29.17;;;;;;;;;;755042;184;918025;-57
2022/09/09 07:28:58;;;;;;;57.73;27.93;;;;;;;;;;755579;184;918607;-58
2022/09/09 07:31:24;;;;;;;54.90;26.10;;;;;;;;;;750136;182;919851;-58
2022/09/09 07:33:50;;;;;;;52.87;26.50;;;;;;;;;;754533;184;918804;-57
2022/09/09 07:36:16;;;;;;;49.73;24.00;;;;;;;;;;753089;184;920006;-58
2022/09/09 07:38:45;;;;;;;40.63;23.10;;;;;;;;;;752362;184;918569;-58
2022/09/09 07:41:11;;;;;;;40.80;22.27;;;;;;;;;;751876;184;919873;-57
2022/09/09 07:43:38;;;;;;;43.83;24.20;;;;;;;;;;751935;184;918341;-58
2022/09/09 07:46:04;;;;;;;43.27;22.90;;;;;;;;;;750922;184;918654;-58
2022/09/09 07:48:30;;;;;;;31.03;20.10;;;;;;;;;;752918;184;919884;-57
2022/09/09 07:51:05;;;;;;;30.47;19.90;;;;;;;;;;750196;185;920953;-57
2022/09/09 07:53:30;;;;;;;37.03;22.43;;;;;;;;;;748427;185;925889;-58
2022/09/09 07:55:56;;;;;;;33.83;20.67;;;;;;;;;;754028;185;919283;-58
2022/09/09 07:58:22;;;;;;;28.38;18.67;;;;;;;;;;755394;184;919420;-58
2022/09/09 08:00:48;;;;;;;27.27;18.63;;;;;;;;;;753605;181;924756;-58
2022/09/09 08:03:14;;;;;;;24.00;17.90;;;;;;;;;;758877;182;815965;-58
2022/09/09 08:05:41;;;;;;;26.67;19.00;;;;;;;;;;763893;184;920952;-59
2022/09/09 08:08:06;;;;;;;27.70;17.43;;;;;;;;;;753551;184;910239;-58
2022/09/09 08:10:32;;;;;;;26.13;18.40;;;;;;;;;;756345;184;898407;-58
2022/09/09 08:12:58;;;;;;;23.33;17.70;;;;;;;;;;755584;184;843445;-58
2022/09/09 08:15:23;;;;;;;23.87;17.63;;;;;;;;;;750836;184;919259;-57
2022/09/09 08:17:49;;;;;;;26.70;17.63;;;;;;;;;;752670;185;919767;-57
2022/09/09 08:20:15;;;;;;;24.70;17.40;;;;;;;;;;753551;185;843773;-57
2022/09/09 08:22:41;;;;;;;25.10;18.50;;;;;;;;;;735473;190;920204;-57
2022/09/09 08:25:08;;;;;;;24.37;19.03;;;;;;;;;;749075;182;919038;-57
2022/09/09 08:27:33;;;;;;;22.80;16.93;;;;;;;;;;756747;185;922263;-57
2022/09/09 08:29:59;;;;;;;20.70;17.47;;;;;;;;;;757530;184;818393;-58
2022/09/09 08:32:26;;;;;;;21.77;16.83;;;;;;;;;;747473;185;919254;-57
2022/09/09 08:34:51;;;;;;;23.67;18.10;;;;;;;;;;744804;185;920595;-57
2022/09/09 08:37:16;;;;;;;22.00;17.03;;;;;;;;;;760375;184;818419;-57
2022/09/09 08:39:42;;;;;;;26.63;18.10;;;;;;;;;;751809;185;919453;-58
2022/09/09 08:42:29;;;;;;;21.13;17.37;;;;;;;;;;755558;184;886643;-57
2022/09/09 08:44:55;;;;;;;24.00;17.80;;;;;;;;;;749486;185;918488;-57
2022/09/09 08:47:22;;;;;;;20.10;16.63;;;;;;;;;;754090;185;919234;-57
2022/09/09 08:50:06;;;;;;;24.13;19.03;;;;;;;;;;742264;183;816820;-57
2022/09/09 08:52:40;;;;;;;23.57;18.57;;;;;;;;;;752209;185;877226;-58
2022/09/09 08:55:06;;;;;;;25.13;17.37;;;;;;;;;;757144;182;884276;-57
2022/09/09 08:57:32;;;;;;;21.73;17.80;;;;;;;;;;749760;185;917952;-57
2022/09/09 08:59:58;;;;;;;23.73;18.23;;;;;;;;;;758832;184;920480;-57
2022/09/09 09:02:26;;;;;;;22.33;17.43;;;;;;;;;;753052;184;920798;-60
2022/09/09 09:04:53;;;;;;;21.03;16.57;;;;;;;;;;752324;184;925415;-57
2022/09/09 09:07:25;;;;;;;21.30;17.40;;;;;;;;;;753545;184;918960;-58
2022/09/09 09:10:06;;;;;;;21.23;16.33;;;;;;;;;;759804;184;817892;-58
2022/09/09 09:12:32;;;;;;;21.17;16.83;;;;;;;;;;757090;183;920503;-57
2022/09/09 09:14:58;;;;;;;18.93;16.00;;;;;;;;;;752309;182;850144;-58
2022/09/09 09:17:24;;;;;;;25.20;18.50;;;;;;;;;;750357;184;919551;-58
2022/09/09 09:19:50;;;;;;;24.50;21.30;;;;;;;;;;753447;184;915174;-58
2022/09/09 09:22:16;;;;;;;21.90;18.00;;;;;;;;;;734161;187;919112;-57
2022/09/09 09:24:42;;;;;;;22.40;17.30;;;;;;;;;;739655;185;906172;-57
2022/09/09 09:27:12;;;;;;;22.80;18.20;;;;;;;;;;749805;185;816764;-58
2022/09/09 09:29:38;;;;;;;25.23;21.13;;;;;;;;;;759347;184;819569;-56
2022/09/09 09:32:03;;;;;;;25.33;18.63;;;;;;;;;;749218;184;919959;-57
2022/09/09 09:34:29;;;;;;;19.90;16.43;;;;;;;;;;751332;185;918855;-57
2022/09/09 09:36:56;;;;;;;24.67;18.53;;;;;;;;;;762135;184;919580;-57
2022/09/09 09:39:22;;;;;;;21.70;17.97;;;;;;;;;;754935;184;918100;-57
2022/09/09 09:41:48;;;;;;;18.90;16.37;;;;;;;;;;754321;184;936241;-56
2022/09/09 09:44:28;;;;;;;21.73;18.13;;;;;;;;;;754920;184;918371;-57
2022/09/09 09:46:54;;;;;;;18.10;15.03;;;;;;;;;;757113;184;919166;-56
2022/09/09 09:49:20;;;;;;;18.00;14.90;;;;;;;;;;757061;185;914373;-56
2022/09/09 09:51:46;;;;;;;19.70;15.30;;;;;;;;;;753922;184;919348;-56
2022/09/09 09:54:14;;;;;;;17.90;15.23;;;;;;;;;;747957;184;934577;-56
2022/09/09 09:56:40;;;;;;;16.63;13.60;;;;;;;;;;760560;184;920667;-56
2022/09/09 09:59:05;;;;;;;12.13;10.87;;;;;;;;;;755168;182;915185;-56
2022/09/09 10:01:33;;;;;;;15.90;10.13;;;;;;;;;;752622;185;878749;-61
2022/09/09 10:03:57;;;;;;;11.40;9.43;;;;;;;;;;758209;184;816274;-56
2022/09/09 10:06:29;;;;;;;10.80;9.30;;;;;;;;;;754473;184;920898;-56
2022/09/09 10:08:55;;;;;;;11.50;7.97;;;;;;;;;;755509;184;919359;-56
2022/09/09 10:11:23;;;;;;;10.43;8.20;;;;;;;;;;758435;184;851540;-57
2022/09/09 10:13:54;;;;;;;14.60;9.60;;;;;;;;;;753420;185;817391;-56
2022/09/09 10:16:36;;;;;;;8.90;7.50;;;;;;;;;;748746;185;915753;-57
2022/09/09 10:19:03;;;;;;;9.50;8.27;;;;;;;;;;754568;184;927029;-58
2022/09/09 10:21:35;;;;;;;9.60;8.60;;;;;;;;;;753443;184;917801;-56
2022/09/09 10:24:05;;;;;;;9.73;7.83;;;;;;;;;;757580;184;917325;-57
2022/09/09 10:26:30;;;;;;;14.87;8.47;;;;;;;;;;753370;184;918488;-57
2022/09/09 10:29:01;;;;;;;9.77;8.77;;;;;;;;;;754277;184;917727;-57
2022/09/09 10:31:32;;;;;;;10.90;8.50;;;;;;;;;;756453;181;920325;-57
2022/09/09 10:34:03;;;;;;;8.10;7.07;;;;;;;;;;753755;184;926441;-57
2022/09/09 10:36:29;;;;;;;8.25;5.90;;;;;;;;;;751518;184;940509;-57
2022/09/09 10:38:58;;;;;;;8.23;6.30;;;;;;;;;;752708;185;757629;-57
2022/09/09 10:41:30;;;;;;;6.80;6.10;;;;;;;;;;753024;184;919417;-56
2022/09/09 10:44:06;;;;;;;5.83;5.00;;;;;;;;;;750836;185;817542;-57
2022/09/09 10:46:32;;;;;;;4.90;3.73;;;;;;;;;;753316;184;920053;-56
2022/09/09 10:49:14;;;;;;;6.47;4.40;;;;;;;;;;759865;184;917995;-56
2022/09/09 10:51:42;;;;;;;5.70;4.30;;;;;;;;;;752076;184;812313;-56
2022/09/09 10:54:12;;;;;;;6.23;3.70;;;;;;;;;;751788;185;918214;-56
2022/09/09 10:56:38;;;;;;;5.23;3.10;;;;;;;;;;755438;184;919028;-57
2022/09/09 10:59:06;;;;;;;7.63;3.30;;;;;;;;;;757305;184;919147;-57
2022/09/09 11:01:48;;;;;;;4.70;3.37;;;;;;;;;;754384;185;889705;-56
2022/09/09 11:04:14;;;;;;;3.33;2.63;;;;;;;;;;760842;185;817950;-56
2022/09/09 11:06:40;;;;;;;6.20;3.67;;;;;;;;;;746504;184;919564;-56
2022/09/09 11:09:06;;;;;;;5.83;3.60;;;;;;;;;;753236;185;915800;-56
2022/09/09 11:11:35;;;;;;;4.83;3.10;;;;;;;;;;755158;180;915756;-56
2022/09/09 11:14:01;;;;;;;4.50;3.50;;;;;;;;;;761534;184;921273;-56
2022/09/09 11:16:28;;;;;;;7.18;3.47;;;;;;;;;;749723;182;916597;-56
2022/09/09 11:18:56;;;;;;;5.47;3.70;;;;;;;;;;754116;184;916905;-56
2022/09/09 11:21:22;;;;;;;5.47;3.80;;;;;;;;;;753483;185;918379;-56
2022/09/09 11:23:49;;;;;;;3.77;2.90;;;;;;;;;;754190;184;921798;-56
2022/09/09 11:26:16;;;;;;;4.37;3.10;;;;;;;;;;753883;184;919258;-57
2022/09/09 11:28:57;;;;;;;6.17;2.20;;;;;;;;;;752739;185;921086;-57
2022/09/09 11:31:27;;;;;;;4.50;2.57;;;;;;;;;;758923;182;814937;-56
2022/09/09 11:34:09;;;;;;;5.10;2.77;;;;;;;;;;756073;184;920101;-56
2022/09/09 11:36:35;;;;;;;4.20;2.63;;;;;;;;;;750223;184;917870;-56
2022/09/09 11:39:01;;;;;;;5.30;3.00;;;;;;;;;;750748;181;916263;-57
2022/09/09 11:41:26;;;;;;;4.13;2.70;;;;;;;;;;747878;184;919463;-56
2022/09/09 11:43:52;;;;;;;6.70;2.47;;;;;;;;;;756990;183;921221;-56
2022/09/09 11:46:21;;;;;;;6.17;3.00;;;;;;;;;;755031;184;919835;-56
2022/09/09 11:49:03;;;;;;;5.97;2.60;;;;;;;;;;754301;184;919417;-56
2022/09/09 11:51:29;;;;;;;4.67;2.70;;;;;;;;;;754133;182;869457;-56
2022/09/09 11:53:54;;;;;;;5.03;2.37;;;;;;;;;;754611;184;916601;-55
2022/09/09 11:56:27;;;;;;;6.63;2.67;;;;;;;;;;755540;184;919374;-56
2022/09/09 11:58:56;;;;;;;4.30;2.20;;;;;;;;;;750521;182;919495;-56
2022/09/09 12:01:26;;;;;;;5.93;2.40;;;;;;;;;;753597;183;865166;-57
2022/09/09 12:03:52;;;;;;;4.40;2.00;;;;;;;;;;753248;185;914001;-57
2022/09/09 12:06:17;;;;;;;3.80;2.17;;;;;;;;;;750277;185;919163;-56
2022/09/09 12:08:45;;;;;;;3.80;2.00;;;;;;;;;;749091;184;919414;-56
2022/09/09 12:11:10;;;;;;;2.63;1.70;;;;;;;;;;753451;184;920648;-56
2022/09/09 12:13:36;;;;;;;4.20;1.90;;;;;;;;;;762935;184;819331;-58
2022/09/09 12:16:05;;;;;;;8.10;2.30;;;;;;;;;;751434;184;914961;-56
2022/09/09 12:18:32;;;;;;;3.20;1.90;;;;;;;;;;751416;185;915332;-56
2022/09/09 12:21:01;;;;;;;5.00;1.77;;;;;;;;;;753067;182;817988;-56
2022/09/09 12:23:31;;;;;;;4.50;1.97;;;;;;;;;;750238;185;818326;-56
2022/09/09 12:26:13;;;;;;;5.10;1.60;;;;;;;;;;756698;184;816485;-56
2022/09/09 12:28:47;;;;;;;3.40;1.40;;;;;;;;;;753871;182;918348;-56
2022/09/09 12:31:22;;;;;;;2.93;1.50;;;;;;;;;;750705;181;894758;-56
2022/09/09 12:33:47;;;;;;;5.40;1.63;;;;;;;;;;753506;184;915820;-56
2022/09/09 12:36:13;;;;;;;4.00;1.63;;;;;;;;;;752424;185;918106;-55
2022/09/09 12:38:39;;;;;;;4.37;1.93;;;;;;;;;;754111;182;918139;-56
2022/09/09 12:41:04;;;;;;;4.33;1.40;;;;;;;;;;753252;184;918621;-56
2022/09/09 12:43:30;;;;;;;2.80;1.10;;;;;;;;;;760158;183;919083;-54
2022/09/09 12:45:57;;;;;;;7.13;1.70;;;;;;;;;;751227;180;920042;-54
2022/09/09 12:48:22;;;;;;;3.63;1.80;;;;;;;;;;754692;181;927081;-54
2022/09/09 12:50:48;;;;;;;2.57;1.30;;;;;;;;;;755264;184;814022;-54
2022/09/09 12:53:15;;;;;;;3.47;1.40;;;;;;;;;;755294;184;921766;-54
2022/09/09 12:55:40;;;;;;;3.70;1.73;;;;;;;;;;755048;184;918739;-54
2022/09/09 12:58:05;;;;;;;2.57;1.57;;;;;;;;;;753455;184;919206;-54
2022/09/09 13:00:31;;;;;;;2.83;1.30;;;;;;;;;;757405;184;848962;-54
2022/09/09 13:02:58;;;;;;;4.20;1.70;;;;;;;;;;752291;182;927518;-54
2022/09/09 13:05:23;;;;;;;3.13;1.30;;;;;;;;;;755164;184;907141;-54
2022/09/09 13:07:49;;;;;;;3.40;2.00;;;;;;;;;;756562;185;868436;-54
2022/09/09 13:10:15;;;;;;;2.80;1.50;;;;;;;;;;754464;184;919748;-53
2022/09/09 13:12:41;;;;;;;3.50;1.33;;;;;;;;;;749748;185;919312;-54
2022/09/09 13:15:07;;;;;;;3.47;1.33;;;;;;;;;;758409;183;922340;-54
2022/09/09 13:17:33;;;;;;;4.67;1.80;;;;;;;;;;754833;184;919350;-54
2022/09/09 13:19:58;;;;;;;5.03;2.07;;;;;;;;;;746607;184;919870;-54
2022/09/09 13:22:27;;;;;;;2.53;1.80;;;;;;;;;;754287;184;889922;-54
2022/09/09 13:24:58;;;;;;;2.97;1.57;;;;;;;;;;755985;185;920309;-53
2022/09/09 13:27:27;;;;;;;4.13;1.77;;;;;;;;;;754613;184;919743;-53
2022/09/09 13:29:54;;;;;;;4.53;1.80;;;;;;;;;;752541;184;919780;-53
2022/09/09 13:32:19;;;;;;;3.95;1.83;;;;;;;;;;753277;184;919757;-54
2022/09/09 13:34:50;;;;;;;6.47;1.57;;;;;;;;;;754816;182;919339;-54
2022/09/09 13:37:17;;;;;;;3.70;2.00;;;;;;;;;;755843;184;921243;-54
2022/09/09 13:39:42;;;;;;;2.63;1.47;;;;;;;;;;751077;185;922344;-54
2022/09/09 13:42:08;;;;;;;4.73;2.17;;;;;;;;;;759680;184;818964;-54
2022/09/09 13:44:34;;;;;;;3.80;1.70;;;;;;;;;;748331;185;820257;-54
2022/09/09 13:47:01;;;;;;;4.63;1.80;;;;;;;;;;753642;184;919998;-54
2022/09/09 13:49:26;;;;;;;6.80;2.17;;;;;;;;;;749009;185;919784;-53
2022/09/09 13:51:53;;;;;;;3.30;1.73;;;;;;;;;;751704;185;918393;-53
2022/09/09 13:54:18;;;;;;;3.00;1.80;;;;;;;;;;752742;184;919389;-54
2022/09/09 13:56:44;;;;;;;5.13;1.70;;;;;;;;;;753294;184;917977;-54
2022/09/09 13:59:12;;;;;;;4.87;1.63;;;;;;;;;;756163;184;917593;-54
2022/09/09 14:01:38;;;;;;;3.97;1.80;;;;;;;;;;758287;184;919347;-54
2022/09/09 14:04:05;;;;;;;3.70;2.07;;;;;;;;;;749109;184;923221;-54
2022/09/09 14:06:29;;;;;;;4.77;1.73;;;;;;;;;;756167;184;817119;-54
2022/09/09 14:08:55;;;;;;;3.27;2.10;;;;;;;;;;754203;182;919669;-54
2022/09/09 14:11:21;;;;;;;3.80;1.90;;;;;;;;;;753478;184;920088;-54
2022/09/09 14:13:47;;;;;;;5.73;1.80;;;;;;;;;;754457;182;918044;-54
2022/09/09 14:16:13;;;;;;;5.67;2.37;;;;;;;;;;754860;184;912846;-54